Impacts METAR Board
IDs:

KSLC - Salt Lake City Intl, UT, US

Updated at: 2200 UTC 14 Aug 2018
Potential Impact None Slight Moderate High
Time 14/10Z 14/11Z 14/12Z 14/13Z 14/14Z 14/15Z 14/16Z 14/17Z 14/18Z 14/19Z 14/20Z 14/21Z 14/22Z
Temp78 77 73 72 75 78 82 85 88 89 91 92 93
Dewpt46 44 46 48 48 46 44 48 51 49 40 41 38
Altim29.97 29.97 29.97 29.98 29.99 30.00 30.00 30.01 30.01 30.00 29.98 29.97 29.95
VIS10 10 10 10 10 10 10 10 10 10 10 10 10
CIG-- -- -- 160 -- -- -- -- -- -- -- 250 250
CoverSCTSCTSCTBKNSCTFEWFEWFEWFEWSCTSCTBKNBKN
FltCatVFRVFRVFRVFRVFRVFRVFRVFRVFRVFRVFRVFRVFR
WX--------------------------
WDir1003302401501601700310310340340330310
WSpd5 3 4 4 4 3 0 7 5 8 10 12 5
WGst-- -- -- -- -- -- -- -- -- -- -- 19 16
Raw hourly METARs
KSLC 140954Z 10005KT 10SM SCT120 SCT200 26/08 A2997 RMK AO2 SLP080 T02560078
KSLC 141054Z 33003KT 10SM SCT120 SCT180 25/07 A2997 RMK AO2 SLP083 T02500067
KSLC 141154Z 24004KT 10SM SCT120 SCT180 23/08 A2997 RMK AO2 SLP085 T02280078 10267 20222 51005
KSLC 141254Z 15004KT 10SM FEW120 BKN160 22/09 A2998 RMK AO2 SLP089 T02220089
KSLC 141354Z 16004KT 10SM FEW160 SCT220 24/09 A2999 RMK AO2 SLP093 T02390089
KSLC 141454Z 17003KT 10SM FEW160 FEW220 26/08 A3000 RMK AO2 SLP096 T02560078 51008
KSLC 141554Z 00000KT 10SM FEW160 FEW230 28/07 A3000 RMK AO2 SLP098 T02780067
KSLC 141654Z 31007KT 10SM FEW170 FEW250 29/09 A3001 RMK AO2 SLP099 T02940089
KSLC 141754Z 31005KT 10SM FEW090 FEW170 FEW250 31/11 A3001 RMK AO2 SLP097 TCU DSNT NE T03110106 10311 20206 50003
KSLC 141854Z 34008KT 10SM FEW090 FEW170 SCT250 32/09 A3000 RMK AO2 SLP093 CB DSNT NE AND SE-S TCU DSNT SW T03170094
KSLC 141954Z 34010KT 10SM FEW090 FEW160 SCT200 SCT250 33/04 A2998 RMK AO2 SLP088 CB DSNT SE-S TCU DSNT NE-E T03280044
KSLC 142054Z 33012G19KT 10SM FEW095 FEW160 SCT200 BKN250 33/05 A2997 RMK AO2 SLP082 VIRGA S CB DSNT SE-S TCU DSNT NE-E AND SW T03330050 58013
KSLC 142154Z 31005G16KT 10SM FEW095 FEW160 SCT200 BKN250 34/03 A2995 RMK AO2 SLP075 VIRGA CB DSNT SE TDU DSNT E AND S T03390033



Page loaded:  22:01 UTC  |   03:01 PM Pacific  |   04:01 PM Mountain  |   05:01 PM Central  |   06:01 PM Eastern

 

ADVISORIES

FORECASTS

FORECASTS

OBSERVATIONS

USER TOOLS

ABOUT US